sensor_id;sensor_type;location;lat;lon;timestamp;pressure;altitude;pressure_sealevel;temperature;humidity
10464;BME280;5279;42.048;24.638;2023-06-22T00:01:19;97728.47;;;22.35;72.09
10464;BME280;5279;42.048;24.638;2023-06-22T00:03:47;97724.75;;;22.29;72.10
10464;BME280;5279;42.048;24.638;2023-06-22T00:06:14;97724.38;;;22.26;72.65
10464;BME280;5279;42.048;24.638;2023-06-22T00:08:41;97719.16;;;22.31;72.42
10464;BME280;5279;42.048;24.638;2023-06-22T00:11:08;97726.47;;;22.24;73.13
10464;BME280;5279;42.048;24.638;2023-06-22T00:13:35;97719.91;;;22.07;74.07
10464;BME280;5279;42.048;24.638;2023-06-22T00:16:04;97727.38;;;22.05;76.02
10464;BME280;5279;42.048;24.638;2023-06-22T00:18:31;97720.75;;;22.01;76.62
10464;BME280;5279;42.048;24.638;2023-06-22T00:20:59;97739.81;;;22.06;76.24
10464;BME280;5279;42.048;24.638;2023-06-22T00:23:26;97741.50;;;22.07;76.72
10464;BME280;5279;42.048;24.638;2023-06-22T00:25:54;97736.47;;;22.10;76.00
10464;BME280;5279;42.048;24.638;2023-06-22T00:28:21;97741.06;;;22.10;76.12
10464;BME280;5279;42.048;24.638;2023-06-22T00:30:48;97743.78;;;22.10;76.04
10464;BME280;5279;42.048;24.638;2023-06-22T00:33:16;97746.84;;;22.13;78.74
10464;BME280;5279;42.048;24.638;2023-06-22T00:35:44;97751.03;;;22.09;77.99
10464;BME280;5279;42.048;24.638;2023-06-22T00:38:11;97763.00;;;22.20;76.08
10464;BME280;5279;42.048;24.638;2023-06-22T00:40:38;97750.78;;;22.17;77.00
10464;BME280;5279;42.048;24.638;2023-06-22T00:43:06;97755.59;;;22.09;80.24
10464;BME280;5279;42.048;24.638;2023-06-22T00:45:33;97760.03;;;21.70;84.41
10464;BME280;5279;42.048;24.638;2023-06-22T00:48:00;97759.84;;;21.65;85.89
10464;BME280;5279;42.048;24.638;2023-06-22T00:50:31;97759.22;;;21.57;84.91
10464;BME280;5279;42.048;24.638;2023-06-22T00:53:01;97756.72;;;21.55;83.88
10464;BME280;5279;42.048;24.638;2023-06-22T00:55:32;97755.28;;;21.53;86.53
10464;BME280;5279;42.048;24.638;2023-06-22T00:58:03;97753.66;;;21.52;85.42
10464;BME280;5279;42.048;24.638;2023-06-22T01:00:33;97756.53;;;21.57;84.89
10464;BME280;5279;42.048;24.638;2023-06-22T01:03:01;97753.84;;;21.57;85.39
10464;BME280;5279;42.048;24.638;2023-06-22T01:05:31;97757.38;;;21.57;86.95
10464;BME280;5279;42.048;24.638;2023-06-22T01:08:08;97761.31;;;21.55;87.79
10464;BME280;5279;42.048;24.638;2023-06-22T01:10:41;97748.25;;;21.45;90.54
10464;BME280;5279;42.048;24.638;2023-06-22T01:13:16;97745.78;;;21.31;89.10
10464;BME280;5279;42.048;24.638;2023-06-22T01:15:49;97747.44;;;21.25;89.28
10464;BME280;5279;42.048;24.638;2023-06-22T01:21:36;97753.25;;;21.22;94.76
10464;BME280;5279;42.048;24.638;2023-06-22T01:24:13;97737.03;;;20.96;95.24
10464;BME280;5279;42.048;24.638;2023-06-22T01:26:45;97742.03;;;21.05;92.13
10464;BME280;5279;42.048;24.638;2023-06-22T01:29:17;97737.50;;;21.12;93.08
10464;BME280;5279;42.048;24.638;2023-06-22T01:31:46;97749.31;;;21.18;94.02
10464;BME280;5279;42.048;24.638;2023-06-22T01:34:15;97745.78;;;21.17;95.66
10464;BME280;5279;42.048;24.638;2023-06-22T01:36:43;97743.69;;;21.13;94.52
10464;BME280;5279;42.048;24.638;2023-06-22T01:39:11;97739.38;;;21.12;91.70
10464;BME280;5279;42.048;24.638;2023-06-22T01:41:40;97735.84;;;21.11;91.86
10464;BME280;5279;42.048;24.638;2023-06-22T01:44:09;97733.16;;;21.18;95.21
10464;BME280;5279;42.048;24.638;2023-06-22T01:46:38;97736.88;;;21.17;96.13
10464;BME280;5279;42.048;24.638;2023-06-22T01:49:06;97731.06;;;21.20;92.96
10464;BME280;5279;42.048;24.638;2023-06-22T01:51:33;97736.03;;;21.23;93.28
10464;BME280;5279;42.048;24.638;2023-06-22T01:54:01;97733.16;;;21.24;93.58
10464;BME280;5279;42.048;24.638;2023-06-22T01:56:28;97737.06;;;21.22;94.91
10464;BME280;5279;42.048;24.638;2023-06-22T01:59:00;97730.88;;;21.15;96.09
10464;BME280;5279;42.048;24.638;2023-06-22T02:01:39;97732.94;;;21.13;97.21
10464;BME280;5279;42.048;24.638;2023-06-22T02:04:13;97737.09;;;21.15;92.92
10464;BME280;5279;42.048;24.638;2023-06-22T02:06:43;97740.41;;;21.24;90.63
10464;BME280;5279;42.048;24.638;2023-06-22T02:09:14;97744.31;;;21.28;90.30
10464;BME280;5279;42.048;24.638;2023-06-22T02:11:44;97735.44;;;21.21;89.81
10464;BME280;5279;42.048;24.638;2023-06-22T02:14:13;97738.94;;;21.28;90.18
10464;BME280;5279;42.048;24.638;2023-06-22T02:16:42;97733.34;;;21.23;90.13
10464;BME280;5279;42.048;24.638;2023-06-22T02:19:09;97735.41;;;21.34;88.99
10464;BME280;5279;42.048;24.638;2023-06-22T02:21:36;97734.97;;;21.37;87.16
10464;BME280;5279;42.048;24.638;2023-06-22T02:24:04;97730.00;;;21.41;86.62
10464;BME280;5279;42.048;24.638;2023-06-22T02:26:32;97738.09;;;21.34;86.67
10464;BME280;5279;42.048;24.638;2023-06-22T02:28:59;97728.31;;;21.46;85.63
10464;BME280;5279;42.048;24.638;2023-06-22T02:31:26;97737.47;;;21.45;85.53
10464;BME280;5279;42.048;24.638;2023-06-22T02:33:57;97742.47;;;21.35;86.69
10464;BME280;5279;42.048;24.638;2023-06-22T02:36:24;97737.91;;;21.29;87.03
10464;BME280;5279;42.048;24.638;2023-06-22T02:38:53;97738.31;;;21.39;86.03
10464;BME280;5279;42.048;24.638;2023-06-22T02:41:21;97740.19;;;21.39;85.51
10464;BME280;5279;42.048;24.638;2023-06-22T02:43:48;97748.25;;;21.45;85.33
10464;BME280;5279;42.048;24.638;2023-06-22T02:46:16;97748.88;;;21.47;84.56
10464;BME280;5279;42.048;24.638;2023-06-22T02:48:43;97754.88;;;21.49;84.61
10464;BME280;5279;42.048;24.638;2023-06-22T02:51:11;97754.25;;;21.47;84.57
10464;BME280;5279;42.048;24.638;2023-06-22T02:53:38;97754.06;;;21.42;84.84
10464;BME280;5279;42.048;24.638;2023-06-22T02:56:05;97764.44;;;21.45;84.75
10464;BME280;5279;42.048;24.638;2023-06-22T02:58:32;97759.25;;;21.50;84.39
10464;BME280;5279;42.048;24.638;2023-06-22T03:01:04;97764.03;;;21.48;84.52
10464;BME280;5279;42.048;24.638;2023-06-22T03:03:31;97756.97;;;21.47;84.01
10464;BME280;5279;42.048;24.638;2023-06-22T03:05:58;97767.75;;;21.54;84.06
10464;BME280;5279;42.048;24.638;2023-06-22T03:08:28;97763.59;;;21.51;84.50
10464;BME280;5279;42.048;24.638;2023-06-22T03:10:55;97768.75;;;21.59;84.42
10464;BME280;5279;42.048;24.638;2023-06-22T03:13:22;97757.56;;;21.62;82.97
10464;BME280;5279;42.048;24.638;2023-06-22T03:15:49;97754.03;;;21.55;82.97
10464;BME280;5279;42.048;24.638;2023-06-22T03:18:16;97775.16;;;21.71;82.60
10464;BME280;5279;42.048;24.638;2023-06-22T03:20:43;97769.78;;;21.71;82.29
10464;BME280;5279;42.048;24.638;2023-06-22T03:23:10;97762.28;;;21.73;82.92
10464;BME280;5279;42.048;24.638;2023-06-22T03:25:38;97771.22;;;21.80;83.88
10464;BME280;5279;42.048;24.638;2023-06-22T03:28:05;97774.09;;;21.86;82.75
10464;BME280;5279;42.048;24.638;2023-06-22T03:30:32;97772.47;;;21.85;84.41
10464;BME280;5279;42.048;24.638;2023-06-22T03:32:59;97774.09;;;21.86;85.82
10464;BME280;5279;42.048;24.638;2023-06-22T03:35:27;97773.25;;;21.98;85.81
10464;BME280;5279;42.048;24.638;2023-06-22T03:37:54;97781.16;;;22.00;82.59
10464;BME280;5279;42.048;24.638;2023-06-22T03:40:21;97782.59;;;22.09;80.58
10464;BME280;5279;42.048;24.638;2023-06-22T03:42:49;97782.97;;;22.19;80.97
10464;BME280;5279;42.048;24.638;2023-06-22T03:45:17;97783.16;;;22.24;86.46
10464;BME280;5279;42.048;24.638;2023-06-22T03:47:44;97778.75;;;22.29;86.70
10464;BME280;5279;42.048;24.638;2023-06-22T03:50:12;97788.94;;;22.34;86.22
10464;BME280;5279;42.048;24.638;2023-06-22T03:52:39;97795.31;;;22.46;85.28
10464;BME280;5279;42.048;24.638;2023-06-22T03:55:07;97799.47;;;22.49;80.75
10464;BME280;5279;42.048;24.638;2023-06-22T03:57:34;97795.22;;;22.59;77.84
10464;BME280;5279;42.048;24.638;2023-06-22T04:00:03;97796.47;;;22.63;75.79
10464;BME280;5279;42.048;24.638;2023-06-22T04:02:31;97785.88;;;22.68;76.53
10464;BME280;5279;42.048;24.638;2023-06-22T04:04:58;97787.69;;;22.74;77.64
10464;BME280;5279;42.048;24.638;2023-06-22T04:07:25;97783.53;;;22.78;78.31
10464;BME280;5279;42.048;24.638;2023-06-22T04:09:52;97780.56;;;22.86;78.97
10464;BME280;5279;42.048;24.638;2023-06-22T04:12:19;97776.78;;;22.94;81.16
10464;BME280;5279;42.048;24.638;2023-06-22T04:14:46;97780.03;;;23.03;79.01
10464;BME280;5279;42.048;24.638;2023-06-22T04:17:14;97779.59;;;23.06;78.77
10464;BME280;5279;42.048;24.638;2023-06-22T04:19:43;97767.13;;;23.05;78.49
10464;BME280;5279;42.048;24.638;2023-06-22T04:22:10;97784.91;;;23.19;76.86
10464;BME280;5279;42.048;24.638;2023-06-22T04:24:37;97785.72;;;23.19;76.91
10464;BME280;5279;42.048;24.638;2023-06-22T04:27:05;97781.59;;;23.17;77.15
10464;BME280;5279;42.048;24.638;2023-06-22T04:29:32;97790.75;;;23.16;79.80
10464;BME280;5279;42.048;24.638;2023-06-22T04:31:59;97782.84;;;23.14;76.34
10464;BME280;5279;42.048;24.638;2023-06-22T04:34:32;97784.09;;;23.18;78.53
10464;BME280;5279;42.048;24.638;2023-06-22T04:36:59;97787.34;;;23.27;78.42
10464;BME280;5279;42.048;24.638;2023-06-22T04:39:26;97787.28;;;23.33;76.34
10464;BME280;5279;42.048;24.638;2023-06-22T04:41:53;97787.72;;;23.30;74.39
10464;BME280;5279;42.048;24.638;2023-06-22T04:44:26;97789.75;;;23.35;74.24
10464;BME280;5279;42.048;24.638;2023-06-22T04:46:57;97801.41;;;23.42;74.44
10464;BME280;5279;42.048;24.638;2023-06-22T04:49:26;97795.25;;;23.53;74.52
10464;BME280;5279;42.048;24.638;2023-06-22T04:51:59;97790.19;;;23.63;75.93
10464;BME280;5279;42.048;24.638;2023-06-22T04:54:26;97792.75;;;23.76;75.86
10464;BME280;5279;42.048;24.638;2023-06-22T04:56:53;97788.91;;;23.84;74.00
10464;BME280;5279;42.048;24.638;2023-06-22T04:59:23;97787.13;;;23.96;76.82
10464;BME280;5279;42.048;24.638;2023-06-22T05:01:53;97782.03;;;24.06;72.94
10464;BME280;5279;42.048;24.638;2023-06-22T05:04:21;97787.34;;;24.19;72.79
10464;BME280;5279;42.048;24.638;2023-06-22T05:06:48;97783.63;;;24.32;71.24
10464;BME280;5279;42.048;24.638;2023-06-22T05:09:17;97783.50;;;24.57;71.21
10464;BME280;5279;42.048;24.638;2023-06-22T05:11:44;97777.09;;;24.69;71.64
10464;BME280;5279;42.048;24.638;2023-06-22T05:14:11;97779.50;;;24.77;68.97
10464;BME280;5279;42.048;24.638;2023-06-22T05:16:38;97777.69;;;24.89;68.65
10464;BME280;5279;42.048;24.638;2023-06-22T05:19:06;97772.50;;;24.99;69.41
10464;BME280;5279;42.048;24.638;2023-06-22T05:21:33;97772.88;;;25.03;68.44
10464;BME280;5279;42.048;24.638;2023-06-22T05:24:00;97766.28;;;25.11;67.29
10464;BME280;5279;42.048;24.638;2023-06-22T05:26:30;97761.25;;;25.26;67.25
10464;BME280;5279;42.048;24.638;2023-06-22T05:28:58;97764.81;;;25.38;68.85
10464;BME280;5279;42.048;24.638;2023-06-22T05:31:26;97751.94;;;25.45;67.53
10464;BME280;5279;42.048;24.638;2023-06-22T05:33:54;97760.22;;;25.73;67.51
10464;BME280;5279;42.048;24.638;2023-06-22T05:36:21;97750.75;;;25.87;65.41
10464;BME280;5279;42.048;24.638;2023-06-22T05:38:50;97756.31;;;26.16;66.90
10464;BME280;5279;42.048;24.638;2023-06-22T05:41:17;97769.72;;;26.34;72.69
10464;BME280;5279;42.048;24.638;2023-06-22T05:43:46;97777.97;;;26.39;70.96
10464;BME280;5279;42.048;24.638;2023-06-22T05:46:13;97772.53;;;26.39;70.92
10464;BME280;5279;42.048;24.638;2023-06-22T05:48:40;97773.63;;;26.38;70.68
10464;BME280;5279;42.048;24.638;2023-06-22T05:51:06;97774.69;;;26.37;71.03
10464;BME280;5279;42.048;24.638;2023-06-22T05:53:33;97761.19;;;26.42;73.32
10464;BME280;5279;42.048;24.638;2023-06-22T05:56:00;97765.88;;;26.58;70.64
10464;BME280;5279;42.048;24.638;2023-06-22T05:58:27;97772.00;;;26.65;70.71
10464;BME280;5279;42.048;24.638;2023-06-22T06:00:55;97775.97;;;26.74;69.29
10464;BME280;5279;42.048;24.638;2023-06-22T06:03:22;97777.50;;;26.82;68.35
10464;BME280;5279;42.048;24.638;2023-06-22T06:05:49;97777.84;;;26.85;61.73
10464;BME280;5279;42.048;24.638;2023-06-22T06:08:16;97785.69;;;26.98;65.85
10464;BME280;5279;42.048;24.638;2023-06-22T06:10:43;97782.28;;;26.91;65.25
10464;BME280;5279;42.048;24.638;2023-06-22T06:13:10;97781.69;;;27.18;67.34
10464;BME280;5279;42.048;24.638;2023-06-22T06:15:37;97780.78;;;27.29;64.62
10464;BME280;5279;42.048;24.638;2023-06-22T06:18:05;97786.41;;;27.39;63.32
10464;BME280;5279;42.048;24.638;2023-06-22T06:20:32;97790.31;;;27.59;61.90
10464;BME280;5279;42.048;24.638;2023-06-22T06:22:59;97786.84;;;27.64;60.34
10464;BME280;5279;42.048;24.638;2023-06-22T06:25:26;97788.47;;;27.82;60.24
10464;BME280;5279;42.048;24.638;2023-06-22T06:27:53;97791.91;;;27.94;60.08
10464;BME280;5279;42.048;24.638;2023-06-22T06:30:21;97782.97;;;28.15;59.42
10464;BME280;5279;42.048;24.638;2023-06-22T06:32:49;97783.75;;;28.32;57.36
10464;BME280;5279;42.048;24.638;2023-06-22T06:35:18;97791.44;;;28.35;57.03
10464;BME280;5279;42.048;24.638;2023-06-22T06:37:47;97792.78;;;28.54;57.26
10464;BME280;5279;42.048;24.638;2023-06-22T06:40:15;97792.72;;;28.71;55.31
10464;BME280;5279;42.048;24.638;2023-06-22T06:42:45;97801.78;;;28.77;51.65
10464;BME280;5279;42.048;24.638;2023-06-22T06:45:15;97797.34;;;28.97;51.03
10464;BME280;5279;42.048;24.638;2023-06-22T06:47:42;97790.88;;;29.03;52.83
10464;BME280;5279;42.048;24.638;2023-06-22T06:50:11;97790.34;;;29.06;50.82
10464;BME280;5279;42.048;24.638;2023-06-22T06:52:39;97791.97;;;29.02;50.55
10464;BME280;5279;42.048;24.638;2023-06-22T06:55:08;97783.66;;;28.92;50.42
10464;BME280;5279;42.048;24.638;2023-06-22T06:57:37;97798.28;;;28.81;50.60
10464;BME280;5279;42.048;24.638;2023-06-22T07:00:05;97798.28;;;28.81;48.23
10464;BME280;5279;42.048;24.638;2023-06-22T07:02:37;97796.16;;;28.88;47.89
10464;BME280;5279;42.048;24.638;2023-06-22T07:05:04;97799.03;;;29.03;48.42
10464;BME280;5279;42.048;24.638;2023-06-22T07:07:32;97796.47;;;29.18;51.93
10464;BME280;5279;42.048;24.638;2023-06-22T07:10:00;97803.03;;;29.17;45.94
10464;BME280;5279;42.048;24.638;2023-06-22T07:12:28;97795.41;;;29.19;46.19
10464;BME280;5279;42.048;24.638;2023-06-22T07:15:01;97811.78;;;29.19;45.28
10464;BME280;5279;42.048;24.638;2023-06-22T07:17:28;97800.47;;;29.33;47.24
10464;BME280;5279;42.048;24.638;2023-06-22T07:19:55;97797.56;;;29.44;47.51
10464;BME280;5279;42.048;24.638;2023-06-22T07:22:22;97789.47;;;29.27;47.36
10464;BME280;5279;42.048;24.638;2023-06-22T07:24:49;97800.63;;;29.21;45.16
10464;BME280;5279;42.048;24.638;2023-06-22T07:27:18;97814.97;;;29.11;43.91
10464;BME280;5279;42.048;24.638;2023-06-22T07:29:45;97807.22;;;29.25;45.14
10464;BME280;5279;42.048;24.638;2023-06-22T07:32:12;97805.41;;;29.36;45.30
10464;BME280;5279;42.048;24.638;2023-06-22T07:34:39;97809.91;;;29.52;47.26
10464;BME280;5279;42.048;24.638;2023-06-22T07:37:06;97807.28;;;29.67;46.24
10464;BME280;5279;42.048;24.638;2023-06-22T07:39:33;97811.50;;;29.79;42.53
10464;BME280;5279;42.048;24.638;2023-06-22T07:42:00;97812.44;;;29.90;43.47
10464;BME280;5279;42.048;24.638;2023-06-22T07:44:28;97817.50;;;30.13;44.00
10464;BME280;5279;42.048;24.638;2023-06-22T07:46:55;97811.78;;;30.20;44.42
10464;BME280;5279;42.048;24.638;2023-06-22T07:49:22;97809.47;;;30.39;42.89
10464;BME280;5279;42.048;24.638;2023-06-22T07:51:49;97814.13;;;30.43;42.30
10464;BME280;5279;42.048;24.638;2023-06-22T07:54:16;97815.56;;;30.56;42.71
10464;BME280;5279;42.048;24.638;2023-06-22T07:56:43;97819.47;;;30.75;40.13
10464;BME280;5279;42.048;24.638;2023-06-22T07:59:09;97814.00;;;30.80;40.84
10464;BME280;5279;42.048;24.638;2023-06-22T08:01:38;97801.25;;;31.01;39.87
10464;BME280;5279;42.048;24.638;2023-06-22T08:04:05;97809.19;;;31.07;41.99
10464;BME280;5279;42.048;24.638;2023-06-22T08:06:32;97815.22;;;31.09;41.04
10464;BME280;5279;42.048;24.638;2023-06-22T08:08:59;97807.53;;;31.01;40.88
10464;BME280;5279;42.048;24.638;2023-06-22T08:11:26;97811.38;;;31.05;40.20
10464;BME280;5279;42.048;24.638;2023-06-22T08:13:53;97805.06;;;31.00;38.64
10464;BME280;5279;42.048;24.638;2023-06-22T08:16:23;97810.53;;;31.00;39.67
10464;BME280;5279;42.048;24.638;2023-06-22T08:18:51;97800.97;;;31.07;40.58
10464;BME280;5279;42.048;24.638;2023-06-22T08:21:18;97801.84;;;31.28;39.42
10464;BME280;5279;42.048;24.638;2023-06-22T08:23:45;97790.56;;;30.94;38.67
10464;BME280;5279;42.048;24.638;2023-06-22T08:26:14;97788.84;;;30.83;40.32
10464;BME280;5279;42.048;24.638;2023-06-22T08:28:41;97785.09;;;30.94;39.35
10464;BME280;5279;42.048;24.638;2023-06-22T08:31:08;97786.13;;;30.88;38.63
10464;BME280;5279;42.048;24.638;2023-06-22T08:33:39;97791.09;;;31.01;39.46
10464;BME280;5279;42.048;24.638;2023-06-22T08:36:10;97782.38;;;31.19;37.87
10464;BME280;5279;42.048;24.638;2023-06-22T08:38:38;97779.63;;;31.14;38.93
10464;BME280;5279;42.048;24.638;2023-06-22T08:41:05;97772.28;;;31.40;38.46
10464;BME280;5279;42.048;24.638;2023-06-22T08:43:32;97776.66;;;31.66;37.32
10464;BME280;5279;42.048;24.638;2023-06-22T08:45:59;97765.97;;;31.60;36.20
10464;BME280;5279;42.048;24.638;2023-06-22T08:48:26;97772.56;;;31.54;37.07
10464;BME280;5279;42.048;24.638;2023-06-22T08:50:53;97766.53;;;31.67;36.07
10464;BME280;5279;42.048;24.638;2023-06-22T08:53:21;97771.44;;;31.80;36.93
10464;BME280;5279;42.048;24.638;2023-06-22T08:55:48;97773.06;;;31.81;36.34
10464;BME280;5279;42.048;24.638;2023-06-22T08:58:16;97756.88;;;31.89;36.15
10464;BME280;5279;42.048;24.638;2023-06-22T09:00:43;97768.09;;;31.98;37.27
10464;BME280;5279;42.048;24.638;2023-06-22T09:03:10;97774.69;;;32.12;36.81
10464;BME280;5279;42.048;24.638;2023-06-22T09:05:37;97768.13;;;32.08;36.99
10464;BME280;5279;42.048;24.638;2023-06-22T09:08:04;97770.59;;;32.10;35.35
10464;BME280;5279;42.048;24.638;2023-06-22T09:10:32;97770.31;;;32.06;35.59
10464;BME280;5279;42.048;24.638;2023-06-22T09:12:59;97780.22;;;31.72;35.65
10464;BME280;5279;42.048;24.638;2023-06-22T09:15:26;97776.91;;;31.45;34.97
10464;BME280;5279;42.048;24.638;2023-06-22T09:17:53;97769.78;;;31.18;36.18
10464;BME280;5279;42.048;24.638;2023-06-22T09:20:21;97776.31;;;31.07;36.82
10464;BME280;5279;42.048;24.638;2023-06-22T09:22:48;97766.50;;;31.21;38.32
10464;BME280;5279;42.048;24.638;2023-06-22T09:25:14;97765.97;;;31.60;37.07
10464;BME280;5279;42.048;24.638;2023-06-22T09:27:43;97769.78;;;32.09;36.16
10464;BME280;5279;42.048;24.638;2023-06-22T09:30:10;97765.84;;;32.40;35.51
10464;BME280;5279;42.048;24.638;2023-06-22T09:32:37;97767.88;;;32.79;34.73
10464;BME280;5279;42.048;24.638;2023-06-22T09:35:05;97768.03;;;32.92;33.28
10464;BME280;5279;42.048;24.638;2023-06-22T09:37:33;97760.63;;;32.98;32.78
10464;BME280;5279;42.048;24.638;2023-06-22T09:40:01;97757.66;;;32.84;32.33
10464;BME280;5279;42.048;24.638;2023-06-22T09:42:33;97757.66;;;32.20;33.32
10464;BME280;5279;42.048;24.638;2023-06-22T09:45:01;97758.56;;;31.45;34.58
10464;BME280;5279;42.048;24.638;2023-06-22T09:47:29;97738.56;;;31.19;35.42
10464;BME280;5279;42.048;24.638;2023-06-22T09:49:56;97758.25;;;31.16;36.13
10464;BME280;5279;42.048;24.638;2023-06-22T09:52:25;97748.44;;;31.15;36.38
10464;BME280;5279;42.048;24.638;2023-06-22T09:54:52;97759.94;;;31.32;36.28
10464;BME280;5279;42.048;24.638;2023-06-22T09:57:19;97756.09;;;31.43;36.18
10464;BME280;5279;42.048;24.638;2023-06-22T09:59:46;97754.16;;;31.89;35.34
10464;BME280;5279;42.048;24.638;2023-06-22T10:02:14;97751.63;;;32.13;35.47
10464;BME280;5279;42.048;24.638;2023-06-22T10:04:41;97754.34;;;32.23;35.52
10464;BME280;5279;42.048;24.638;2023-06-22T10:07:08;97744.78;;;32.21;35.17
10464;BME280;5279;42.048;24.638;2023-06-22T10:09:34;97747.22;;;32.22;36.47
10464;BME280;5279;42.048;24.638;2023-06-22T10:12:02;97762.31;;;32.20;36.38
10464;BME280;5279;42.048;24.638;2023-06-22T10:14:29;97753.59;;;32.13;39.09
10464;BME280;5279;42.048;24.638;2023-06-22T10:16:55;97742.28;;;32.19;38.43
10464;BME280;5279;42.048;24.638;2023-06-22T10:19:24;97741.72;;;32.22;37.96
10464;BME280;5279;42.048;24.638;2023-06-22T10:21:50;97743.56;;;32.47;37.80
10464;BME280;5279;42.048;24.638;2023-06-22T10:24:17;97732.13;;;32.84;36.63
10464;BME280;5279;42.048;24.638;2023-06-22T10:26:45;97741.06;;;33.10;35.42
10464;BME280;5279;42.048;24.638;2023-06-22T10:29:12;97737.06;;;33.26;33.43
10464;BME280;5279;42.048;24.638;2023-06-22T10:31:39;97747.63;;;33.47;33.76
10464;BME280;5279;42.048;24.638;2023-06-22T10:34:06;97740.34;;;33.67;32.26
10464;BME280;5279;42.048;24.638;2023-06-22T10:36:34;97730.41;;;33.71;30.83
10464;BME280;5279;42.048;24.638;2023-06-22T10:39:01;97719.78;;;33.88;31.51
10464;BME280;5279;42.048;24.638;2023-06-22T10:41:28;97719.53;;;34.08;32.59
10464;BME280;5279;42.048;24.638;2023-06-22T10:43:56;97710.69;;;34.16;30.75
10464;BME280;5279;42.048;24.638;2023-06-22T10:46:24;97707.25;;;34.48;33.01
10464;BME280;5279;42.048;24.638;2023-06-22T10:48:51;97708.34;;;34.71;31.57
10464;BME280;5279;42.048;24.638;2023-06-22T10:51:20;97709.75;;;34.87;31.29
10464;BME280;5279;42.048;24.638;2023-06-22T10:53:48;97706.78;;;35.02;31.43
10464;BME280;5279;42.048;24.638;2023-06-22T10:56:16;97696.28;;;35.23;29.16
10464;BME280;5279;42.048;24.638;2023-06-22T10:58:44;97702.69;;;35.50;29.22
10464;BME280;5279;42.048;24.638;2023-06-22T11:01:11;97695.31;;;35.46;29.00
10464;BME280;5279;42.048;24.638;2023-06-22T11:03:38;97691.31;;;35.38;29.26
10464;BME280;5279;42.048;24.638;2023-06-22T11:06:05;97686.69;;;35.20;28.41
10464;BME280;5279;42.048;24.638;2023-06-22T11:08:32;97682.53;;;35.36;29.26
10464;BME280;5279;42.048;24.638;2023-06-22T11:11:00;97681.75;;;35.49;28.84
10464;BME280;5279;42.048;24.638;2023-06-22T11:13:27;97682.25;;;35.51;29.44
10464;BME280;5279;42.048;24.638;2023-06-22T11:15:54;97689.50;;;35.47;29.44
10464;BME280;5279;42.048;24.638;2023-06-22T11:18:20;97687.63;;;35.29;29.94
10464;BME280;5279;42.048;24.638;2023-06-22T11:20:48;97695.00;;;35.15;30.72
10464;BME280;5279;42.048;24.638;2023-06-22T11:23:15;97686.00;;;35.09;29.87
10464;BME280;5279;42.048;24.638;2023-06-22T11:25:42;97689.81;;;34.95;29.75
10464;BME280;5279;42.048;24.638;2023-06-22T11:28:10;97688.91;;;34.81;31.69
10464;BME280;5279;42.048;24.638;2023-06-22T11:30:37;97693.44;;;34.53;31.96
10464;BME280;5279;42.048;24.638;2023-06-22T11:33:04;97688.34;;;34.23;32.82
10464;BME280;5279;42.048;24.638;2023-06-22T11:35:31;97696.53;;;33.99;31.72
10464;BME280;5279;42.048;24.638;2023-06-22T11:37:58;97694.84;;;34.03;31.88
10464;BME280;5279;42.048;24.638;2023-06-22T11:40:25;97695.59;;;34.14;32.02
10464;BME280;5279;42.048;24.638;2023-06-22T11:42:51;97688.75;;;34.06;31.80
10464;BME280;5279;42.048;24.638;2023-06-22T11:45:20;97692.84;;;34.32;31.73
10464;BME280;5279;42.048;24.638;2023-06-22T11:47:47;97699.81;;;34.48;34.42
10464;BME280;5279;42.048;24.638;2023-06-22T11:50:14;97696.66;;;34.36;34.33
10464;BME280;5279;42.048;24.638;2023-06-22T11:52:41;97690.28;;;34.17;33.37
10464;BME280;5279;42.048;24.638;2023-06-22T11:55:08;97683.63;;;34.23;33.68
10464;BME280;5279;42.048;24.638;2023-06-22T11:57:36;97686.75;;;34.35;31.75
10464;BME280;5279;42.048;24.638;2023-06-22T12:00:04;97679.13;;;34.51;32.10
10464;BME280;5279;42.048;24.638;2023-06-22T12:02:40;97674.44;;;34.51;31.69
10464;BME280;5279;42.048;24.638;2023-06-22T12:05:07;97678.88;;;34.71;31.31
10464;BME280;5279;42.048;24.638;2023-06-22T12:07:34;97670.81;;;34.93;31.68
10464;BME280;5279;42.048;24.638;2023-06-22T12:10:01;97668.81;;;34.99;31.69
10464;BME280;5279;42.048;24.638;2023-06-22T12:12:28;97674.00;;;35.00;30.95
10464;BME280;5279;42.048;24.638;2023-06-22T12:14:55;97665.63;;;35.10;30.29
10464;BME280;5279;42.048;24.638;2023-06-22T12:17:22;97664.19;;;35.13;30.58
10464;BME280;5279;42.048;24.638;2023-06-22T12:19:50;97668.66;;;35.09;29.94
10464;BME280;5279;42.048;24.638;2023-06-22T12:22:17;97653.94;;;34.81;30.31
10464;BME280;5279;42.048;24.638;2023-06-22T12:24:44;97670.06;;;34.88;31.18
10464;BME280;5279;42.048;24.638;2023-06-22T12:27:11;97654.88;;;34.90;29.57
10464;BME280;5279;42.048;24.638;2023-06-22T12:29:38;97663.22;;;34.85;31.21
10464;BME280;5279;42.048;24.638;2023-06-22T12:32:05;97648.78;;;34.75;32.26
10464;BME280;5279;42.048;24.638;2023-06-22T12:34:32;97652.53;;;34.65;30.99
10464;BME280;5279;42.048;24.638;2023-06-22T12:37:00;97644.91;;;34.38;30.28
10464;BME280;5279;42.048;24.638;2023-06-22T12:39:27;97653.47;;;34.37;31.15
10464;BME280;5279;42.048;24.638;2023-06-22T12:41:54;97649.06;;;34.36;32.86
10464;BME280;5279;42.048;24.638;2023-06-22T12:44:21;97649.56;;;34.62;31.67
10464;BME280;5279;42.048;24.638;2023-06-22T12:46:48;97637.84;;;34.88;30.40
10464;BME280;5279;42.048;24.638;2023-06-22T12:49:15;97632.56;;;35.10;31.31
10464;BME280;5279;42.048;24.638;2023-06-22T12:51:42;97624.53;;;34.95;31.25
10464;BME280;5279;42.048;24.638;2023-06-22T12:54:11;97636.66;;;35.13;31.31
10464;BME280;5279;42.048;24.638;2023-06-22T12:56:38;97629.22;;;34.95;31.20
10464;BME280;5279;42.048;24.638;2023-06-22T12:59:05;97633.63;;;34.77;31.39
10464;BME280;5279;42.048;24.638;2023-06-22T13:01:32;97633.31;;;34.60;30.99
10464;BME280;5279;42.048;24.638;2023-06-22T13:03:59;97633.16;;;34.51;31.05
10464;BME280;5279;42.048;24.638;2023-06-22T13:06:26;97630.84;;;34.21;31.70